Time;durP1;ratioP1;P1;durP2;ratioP2;P2;SDS_P1;SDS_P2;PMS_P1;PMS_P2;Temp;Humidity;BMP_temperature;BMP_pressure;BME280_temperature;BME280_humidity;BME280_pressure;Samples;Min_cycle;Max_cycle;Signal;HPM_P1;HPM_P2
2022/11/05 00:16:42;;;;;;;10.25;1.00;;;8.10;99.90;;;;;;5030290;28;20049;-63
2022/11/05 00:16:57;;;;;;;2.92;1.55;;;8.10;99.90;;;;;;5030181;28;20046;-63
2022/11/05 00:19:24;;;;;;;4.65;0.70;;;8.10;99.90;;;;;;5028517;28;20672;-62
2022/11/05 00:27:26;;;;;;;1.20;0.63;;;8.20;99.90;;;;;;5028819;28;20041;-62
2022/11/05 00:29:54;;;;;;;6.13;0.77;;;8.30;99.90;;;;;;5030029;28;20052;-63
2022/11/05 00:32:22;;;;;;;7.15;1.45;;;8.30;99.90;;;;;;5012250;28;20046;-66
2022/11/05 00:34:50;;;;;;;3.65;1.08;;;8.30;99.90;;;;;;5029423;28;20747;-66
2022/11/05 00:37:17;;;;;;;3.83;0.80;;;8.30;99.90;;;;;;5024353;28;20053;-65
2022/11/05 00:39:47;;;;;;;3.33;1.35;;;8.30;99.90;;;;;;5010203;28;20045;-63
2022/11/05 00:45:04;;;;;;;8.70;1.55;;;8.30;99.90;;;;;;5006607;28;20054;-63
2022/11/05 00:50:20;;;;;;;5.13;0.70;;;8.30;99.90;;;;;;5029555;28;20386;-62
2022/11/05 00:52:56;;;;;;;2.90;0.63;;;8.30;99.90;;;;;;5013756;28;20057;-65
2022/11/05 00:55:36;;;;;;;5.50;0.85;;;8.30;99.90;;;;;;5029455;28;20050;-65
2022/11/05 00:58:10;;;;;;;4.45;1.35;;;8.30;99.90;;;;;;5029550;28;20057;-66
2022/11/05 01:00:40;;;;;;;3.22;0.85;;;8.30;99.90;;;;;;5029819;28;20045;-65
2022/11/05 01:03:12;;;;;;;7.93;1.08;;;8.30;99.90;;;;;;5026561;28;20057;-62
2022/11/05 01:05:43;;;;;;;6.85;1.30;;;8.30;99.90;;;;;;5024456;28;20064;-67
2022/11/05 01:08:12;;;;;;;5.20;1.10;;;8.30;99.90;;;;;;5016966;28;20076;-62
2022/11/05 01:10:49;;;;;;;2.15;1.13;;;8.30;99.90;;;;;;5028009;28;20052;-62
2022/11/05 01:13:25;;;;;;;2.35;0.85;;;8.30;99.90;;;;;;5029286;28;20053;-64
2022/11/05 01:15:53;;;;;;;5.43;1.23;;;8.30;99.90;;;;;;5027469;28;20049;-65
2022/11/05 01:18:22;;;;;;;4.05;1.23;;;8.30;99.90;;;;;;5028081;28;20045;-63
2022/11/05 01:20:50;;;;;;;7.65;1.63;;;8.30;99.90;;;;;;5027850;28;20691;-62
2022/11/05 01:23:18;;;;;;;11.02;1.85;;;8.20;99.90;;;;;;5027365;28;20049;-66
2022/11/05 01:25:46;;;;;;;7.80;1.60;;;8.20;99.90;;;;;;5028330;28;20522;-63
2022/11/05 01:28:14;;;;;;;6.30;1.45;;;8.10;99.90;;;;;;5028745;28;20056;-64
2022/11/05 01:30:41;;;;;;;2.90;1.15;;;8.10;99.90;;;;;;5013710;28;20053;-63
2022/11/05 01:33:09;;;;;;;6.22;1.10;;;8.10;99.90;;;;;;5012586;28;20034;-63
2022/11/05 01:35:38;;;;;;;5.53;1.20;;;8.00;99.90;;;;;;5028548;28;20623;-62
2022/11/05 01:38:06;;;;;;;7.95;1.52;;;8.00;99.90;;;;;;5019163;28;20049;-62
2022/11/05 01:40:33;;;;;;;2.35;1.17;;;7.90;99.90;;;;;;5028846;28;20489;-62
2022/11/05 01:43:01;;;;;;;8.25;1.00;;;8.00;99.90;;;;;;5028046;28;20053;-62
2022/11/05 01:45:28;;;;;;;7.40;1.10;;;7.90;99.90;;;;;;5028457;28;20041;-64
2022/11/05 01:48:13;;;;;;;8.88;1.52;;;7.90;99.90;;;;;;5028432;28;20064;-62
2022/11/05 01:50:49;;;;;;;7.90;1.42;;;7.90;99.90;;;;;;5028446;28;20057;-61
2022/11/05 01:53:44;;;;;;;3.20;0.95;;;7.90;99.90;;;;;;5016372;28;20045;-62
2022/11/05 01:56:31;;;;;;;4.95;0.95;;;7.90;99.90;;;;;;5008782;28;20076;-63
2022/11/05 01:59:10;;;;;;;7.32;1.42;;;7.90;99.90;;;;;;5022139;28;20511;-73
2022/11/05 02:01:38;;;;;;;3.58;1.20;;;7.90;99.90;;;;;;5027288;28;20523;-69
2022/11/05 02:04:10;;;;;;;3.45;1.20;;;7.90;99.90;;;;;;5028086;28;20072;-69
2022/11/05 02:06:44;;;;;;;4.97;1.38;;;7.90;99.90;;;;;;5026695;28;20132;-64
2022/11/05 02:09:28;;;;;;;4.95;1.63;;;7.90;99.90;;;;;;5023495;28;20060;-62
2022/11/05 02:11:57;;;;;;;8.23;1.80;;;7.90;99.90;;;;;;5027240;28;20060;-66
2022/11/05 02:14:25;;;;;;;6.00;2.13;;;7.90;99.90;;;;;;5028194;28;20054;-62
2022/11/05 02:16:55;;;;;;;13.60;2.60;;;7.80;99.90;;;;;;5027449;28;20401;-61
2022/11/05 02:19:25;;;;;;;10.00;2.25;;;7.80;99.90;;;;;;5027842;28;20038;-66
2022/11/05 02:22:12;;;;;;;6.15;2.13;;;7.80;99.90;;;;;;5025219;28;20050;-72
2022/11/05 02:25:01;;;;;;;7.30;2.42;;;7.80;99.90;;;;;;5026590;28;20053;-71
2022/11/05 02:27:57;;;;;;;7.53;2.23;;;7.80;99.90;;;;;;5019164;28;20038;-71
2022/11/05 02:30:51;;;;;;;9.00;2.60;;;7.70;99.90;;;;;;5025779;28;20286;-72
2022/11/05 02:33:25;;;;;;;9.02;2.38;;;7.70;99.90;;;;;;5020947;28;20045;-73
2022/11/05 02:36:04;;;;;;;10.35;2.25;;;7.70;99.90;;;;;;5031323;28;20042;-63
2022/11/05 02:38:44;;;;;;;7.78;2.30;;;7.70;99.90;;;;;;5031292;28;20048;-66
2022/11/05 02:41:30;;;;;;;3.17;1.67;;;7.60;99.90;;;;;;5031174;28;20189;-63
2022/11/05 02:44:05;;;;;;;6.60;2.33;;;7.60;99.90;;;;;;5031220;28;20049;-62
2022/11/05 02:46:51;;;;;;;6.10;2.13;;;7.60;99.90;;;;;;5024885;28;20049;-69
2022/11/05 02:49:46;;;;;;;3.40;1.50;;;7.60;99.90;;;;;;5030959;28;20060;-64
2022/11/05 02:52:33;;;;;;;7.13;1.90;;;7.60;99.90;;;;;;5030017;28;20497;-65
2022/11/05 02:55:28;;;;;;;7.78;2.25;;;7.60;99.90;;;;;;5030047;28;20053;-65
2022/11/05 02:57:55;;;;;;;6.82;2.13;;;7.60;99.90;;;;;;5030549;28;20042;-64
2022/11/05 03:00:38;;;;;;;5.45;2.15;;;7.60;99.90;;;;;;5031008;28;20045;-65
2022/11/05 03:03:26;;;;;;;6.03;1.95;;;7.60;99.90;;;;;;5031033;28;20049;-62
2022/11/05 03:06:12;;;;;;;5.40;2.42;;;7.60;99.90;;;;;;5030732;28;20041;-65
2022/11/05 03:08:48;;;;;;;3.72;1.48;;;7.60;99.90;;;;;;5032272;28;20102;-64
2022/11/05 03:11:19;;;;;;;4.90;1.40;;;7.60;99.90;;;;;;5034981;28;20049;-62
2022/11/05 03:14:27;;;;;;;6.07;1.35;;;7.70;99.90;;;;;;5034532;28;20052;-65
2022/11/05 03:17:04;;;;;;;5.90;1.95;;;7.70;99.90;;;;;;5033616;28;20497;-68
2022/11/05 03:19:57;;;;;;;8.48;1.88;;;7.70;99.90;;;;;;5034533;28;20053;-63
2022/11/05 03:22:33;;;;;;;9.38;1.67;;;7.80;99.90;;;;;;5034543;28;20048;-63
2022/11/05 03:25:07;;;;;;;6.25;1.90;;;7.80;99.90;;;;;;5034569;28;21176;-64
2022/11/05 03:27:40;;;;;;;5.18;1.85;;;7.80;99.90;;;;;;5033059;28;20041;-62
2022/11/05 03:30:10;;;;;;;7.85;2.40;;;7.80;99.90;;;;;;5033591;28;20053;-66
2022/11/05 03:32:45;;;;;;;6.78;2.10;;;7.80;99.90;;;;;;5033988;28;20057;-62
2022/11/05 03:35:24;;;;;;;4.32;2.50;;;7.80;99.90;;;;;;5034371;28;20042;-66
2022/11/05 03:37:56;;;;;;;7.35;2.20;;;7.80;99.90;;;;;;5033928;28;20049;-62
2022/11/05 03:40:25;;;;;;;4.45;1.88;;;7.80;99.90;;;;;;5016709;28;20375;-64
2022/11/05 03:42:55;;;;;;;6.55;1.85;;;7.80;99.90;;;;;;5014398;28;20050;-66
2022/11/05 03:45:34;;;;;;;7.75;2.47;;;7.90;99.90;;;;;;5014499;28;20050;-62
2022/11/05 03:48:06;;;;;;;7.88;2.08;;;7.90;99.90;;;;;;5033951;28;20409;-61
2022/11/05 03:50:56;;;;;;;9.13;2.42;;;7.90;99.90;;;;;;5034016;28;20535;-62
2022/11/05 03:53:35;;;;;;;4.85;2.08;;;7.90;99.90;;;;;;5034083;28;20046;-61
2022/11/05 03:56:26;;;;;;;7.03;1.95;;;8.00;99.90;;;;;;5034137;28;20052;-63
2022/11/05 03:58:55;;;;;;;5.60;1.80;;;8.00;99.90;;;;;;5033910;28;20512;-62
2022/11/05 04:01:26;;;;;;;7.85;2.15;;;8.00;99.90;;;;;;5033936;28;20064;-61
2022/11/05 04:03:54;;;;;;;6.20;2.00;;;8.00;99.90;;;;;;5033816;28;20052;-61
2022/11/05 04:14:41;;;;;;;9.35;2.22;;;8.00;99.90;;;;;;5033742;28;20057;-63
2022/11/05 04:17:09;;;;;;;5.68;1.77;;;8.00;99.90;;;;;;5032281;28;20061;-62
2022/11/05 04:25:20;;;;;;;3.90;1.27;;;8.00;99.90;;;;;;5033261;28;20060;-61
2022/11/05 04:27:48;;;;;;;5.53;1.30;;;8.00;99.90;;;;;;5033395;28;20496;-61
2022/11/05 04:30:17;;;;;;;6.30;2.08;;;8.00;99.90;;;;;;5033481;28;20045;-61
2022/11/05 04:32:55;;;;;;;9.80;1.95;;;8.00;99.90;;;;;;5033440;28;20045;-62
2022/11/05 04:35:23;;;;;;;4.00;1.15;;;8.00;99.90;;;;;;5033222;28;20049;-61
2022/11/05 04:37:51;;;;;;;6.30;1.65;;;8.00;99.90;;;;;;5033049;28;20053;-61
2022/11/05 04:40:19;;;;;;;6.90;1.30;;;7.90;99.90;;;;;;5033376;28;20049;-61
2022/11/05 04:42:46;;;;;;;5.47;1.75;;;8.00;99.90;;;;;;5033206;28;20477;-62
2022/11/05 04:45:14;;;;;;;4.22;1.40;;;8.00;99.90;;;;;;5032969;28;20415;-61
2022/11/05 04:47:41;;;;;;;4.40;1.35;;;8.00;99.90;;;;;;5033037;28;20045;-62
2022/11/05 04:50:10;;;;;;;6.60;1.40;;;8.00;99.90;;;;;;5032830;28;20397;-62
2022/11/05 04:52:39;;;;;;;4.82;1.48;;;8.00;99.90;;;;;;5033069;28;20045;-64
2022/11/05 04:55:07;;;;;;;13.98;3.17;;;8.00;99.90;;;;;;5032880;28;20049;-62
2022/11/05 04:57:35;;;;;;;8.50;1.70;;;7.90;99.90;;;;;;5032913;28;20052;-62
2022/11/05 05:00:06;;;;;;;5.72;1.52;;;8.00;99.90;;;;;;5032785;28;20057;-61
2022/11/05 05:02:35;;;;;;;5.57;2.15;;;8.00;99.90;;;;;;5032980;28;20041;-62
2022/11/05 05:05:03;;;;;;;4.47;1.50;;;8.00;99.90;;;;;;5032716;28;20058;-72
2022/11/05 05:07:32;;;;;;;4.50;1.23;;;8.00;99.90;;;;;;5032600;28;20298;-73
2022/11/05 05:10:00;;;;;;;13.48;1.60;;;8.00;99.90;;;;;;5032552;28;20049;-71
2022/11/05 05:12:28;;;;;;;5.43;2.30;;;8.00;99.90;;;;;;5032699;28;20382;-73
2022/11/05 05:14:56;;;;;;;5.57;1.65;;;8.00;99.90;;;;;;5031312;28;20053;-73
2022/11/05 05:17:24;;;;;;;5.55;1.73;;;8.00;99.90;;;;;;5032501;28;20425;-72
2022/11/05 05:22:38;;;;;;;3.67;1.90;;;8.00;99.90;;;;;;5032575;28;20038;-72
2022/11/05 05:25:05;;;;;;;5.55;1.88;;;8.00;99.90;;;;;;5032093;28;20050;-72
2022/11/05 05:27:33;;;;;;;10.50;2.85;;;8.00;99.90;;;;;;5032285;28;20049;-63
2022/11/05 05:30:01;;;;;;;10.30;2.05;;;8.00;99.90;;;;;;5031908;28;20050;-62
2022/11/05 05:32:28;;;;;;;3.33;1.77;;;8.00;99.90;;;;;;5032243;28;20060;-62
2022/11/05 05:34:56;;;;;;;5.15;2.03;;;8.00;99.90;;;;;;5032230;28;20045;-62
2022/11/05 05:37:23;;;;;;;4.75;2.20;;;8.00;99.90;;;;;;5021771;28;20042;-62
2022/11/05 05:39:52;;;;;;;7.30;1.90;;;8.00;99.90;;;;;;5011168;28;20054;-63
2022/11/05 05:42:21;;;;;;;8.32;2.55;;;8.10;99.90;;;;;;5012580;28;20045;-64
2022/11/05 05:44:49;;;;;;;15.90;3.00;;;8.00;99.90;;;;;;5011084;28;20042;-62
2022/11/05 05:47:16;;;;;;;5.63;2.50;;;8.10;99.90;;;;;;5020190;28;21171;-62
2022/11/05 05:49:44;;;;;;;6.45;2.00;;;8.10;99.90;;;;;;5022482;28;20638;-62
2022/11/05 05:52:12;;;;;;;4.22;2.45;;;8.10;99.90;;;;;;5028877;28;20046;-65
2022/11/05 05:54:39;;;;;;;7.13;2.70;;;8.10;99.90;;;;;;5028790;28;20049;-62
2022/11/05 05:57:09;;;;;;;;;;;8.10;99.90;;;;;;5028584;28;20060;-63
2022/11/05 05:59:37;;;;;;;7.15;2.47;;;8.10;99.90;;;;;;5028572;28;19921;-65
2022/11/05 06:02:04;;;;;;;5.22;1.98;;;8.10;99.90;;;;;;5020463;28;20064;-63
2022/11/05 06:04:32;;;;;;;8.27;2.10;;;8.20;99.90;;;;;;5024008;28;20064;-66
2022/11/05 06:06:59;;;;;;;6.55;2.28;;;8.20;99.90;;;;;;5025219;28;20516;-63
2022/11/05 06:09:27;;;;;;;5.65;2.15;;;8.10;99.90;;;;;;5025496;28;20053;-67
2022/11/05 06:11:55;;;;;;;8.70;2.88;;;8.20;99.90;;;;;;5027065;28;20034;-67
2022/11/05 06:14:23;;;;;;;6.22;1.90;;;8.20;99.90;;;;;;5027405;28;20050;-66
2022/11/05 06:16:50;;;;;;;7.75;2.42;;;8.20;99.90;;;;;;5026027;28;20046;-62
2022/11/05 06:19:18;;;;;;;9.95;2.47;;;8.20;99.90;;;;;;5019227;28;20061;-62
2022/11/05 06:21:46;;;;;;;10.57;2.10;;;8.20;99.90;;;;;;5006010;28;20053;-70
2022/11/05 06:24:13;;;;;;;7.70;2.53;;;8.20;99.90;;;;;;5028604;28;20057;-62
2022/11/05 06:26:42;;;;;;;7.68;2.60;;;8.20;99.90;;;;;;5028214;28;20050;-62
2022/11/05 06:29:09;;;;;;;13.18;4.53;;;8.20;99.90;;;;;;5027987;28;20060;-68
2022/11/05 06:31:38;;;;;;;8.00;2.90;;;8.20;99.90;;;;;;5028412;28;20048;-62
2022/11/05 06:34:05;;;;;;;7.97;3.03;;;8.20;99.90;;;;;;5013391;28;20375;-62
2022/11/05 06:36:33;;;;;;;9.75;2.50;;;8.20;99.90;;;;;;5008621;28;20370;-61
2022/11/05 06:39:01;;;;;;;18.25;6.00;;;8.20;99.90;;;;;;5024416;28;20045;-62
2022/11/05 06:41:28;;;;;;;5.53;2.55;;;8.20;99.90;;;;;;5027135;28;20103;-62
2022/11/05 06:43:56;;;;;;;7.35;2.75;;;8.20;99.90;;;;;;5030797;28;20042;-62
2022/11/05 06:46:23;;;;;;;12.43;3.10;;;8.10;99.90;;;;;;5030787;28;20053;-64
2022/11/05 06:48:51;;;;;;;8.68;2.97;;;8.10;99.90;;;;;;5014881;28;20501;-61
2022/11/05 06:51:19;;;;;;;10.82;3.45;;;8.10;99.90;;;;;;5008432;28;20046;-62
2022/11/05 06:53:46;;;;;;;12.13;3.90;;;8.10;99.90;;;;;;5024785;28;20061;-64
2022/11/05 06:56:14;;;;;;;13.10;3.67;;;8.00;99.90;;;;;;5028866;28;20052;-61
2022/11/05 06:58:41;;;;;;;11.02;3.90;;;8.00;99.90;;;;;;5028546;28;20056;-63
2022/11/05 07:01:09;;;;;;;10.50;3.58;;;8.00;99.90;;;;;;5029090;28;20255;-63
2022/11/05 07:03:38;;;;;;;7.70;3.58;;;8.00;99.90;;;;;;5019466;28;20397;-62
2022/11/05 07:06:06;;;;;;;9.43;3.53;;;8.00;99.90;;;;;;5009703;28;20510;-61
2022/11/05 07:08:35;;;;;;;7.15;3.10;;;8.00;99.90;;;;;;5024626;28;20056;-61
2022/11/05 07:11:03;;;;;;;12.77;4.63;;;8.00;99.90;;;;;;5030338;28;20041;-63
2022/11/05 07:13:31;;;;;;;13.20;4.25;;;8.00;99.90;;;;;;5027716;28;20060;-64
2022/11/05 07:15:59;;;;;;;11.07;3.63;;;8.00;99.90;;;;;;5028172;28;20056;-62
2022/11/05 07:18:26;;;;;;;38.15;4.47;;;8.00;99.90;;;;;;5022187;28;20038;-64
2022/11/05 07:20:54;;;;;;;9.25;3.58;;;8.00;99.90;;;;;;5008248;28;20057;-62
2022/11/05 07:23:22;;;;;;;11.05;4.30;;;8.00;99.90;;;;;;5020913;28;20041;-69
2022/11/05 07:25:49;;;;;;;9.88;3.97;;;8.00;99.90;;;;;;5028665;28;20050;-63
2022/11/05 07:28:17;;;;;;;13.18;5.10;;;8.00;99.90;;;;;;5027058;28;20044;-62
2022/11/05 07:30:47;;;;;;;16.88;4.55;;;8.00;99.90;;;;;;5028443;28;20401;-62
2022/11/05 07:33:14;;;;;;;13.05;4.15;;;8.10;99.90;;;;;;5024555;28;20037;-62
2022/11/05 07:35:42;;;;;;;11.65;4.50;;;8.10;99.90;;;;;;5007700;28;20068;-64
2022/11/05 07:38:10;;;;;;;13.43;4.75;;;8.10;99.90;;;;;;5020296;28;20821;-63
2022/11/05 07:40:38;;;;;;;12.13;4.28;;;8.10;99.90;;;;;;5030759;28;20405;-61
2022/11/05 07:43:06;;;;;;;12.90;4.88;;;8.10;99.90;;;;;;5027296;28;20053;-62
2022/11/05 07:45:33;;;;;;;8.40;4.28;;;8.20;99.90;;;;;;5026175;28;20061;-62
2022/11/05 07:48:03;;;;;;;12.32;4.65;;;8.20;99.90;;;;;;5026426;28;20433;-60
2022/11/05 07:50:33;;;;;;;12.90;5.10;;;8.20;99.90;;;;;;5029241;28;20052;-65
2022/11/05 07:53:10;;;;;;;15.70;5.10;;;8.20;99.90;;;;;;5029409;28;20041;-61
2022/11/05 07:55:42;;;;;;;15.60;5.50;;;8.20;99.90;;;;;;5029274;28;20052;-62
2022/11/05 07:58:11;;;;;;;13.55;5.55;;;8.30;99.90;;;;;;5026279;28;20037;-69
2022/11/05 08:00:38;;;;;;;14.27;5.90;;;8.20;99.90;;;;;;5026814;28;20052;-62
2022/11/05 08:03:12;;;;;;;17.27;6.25;;;8.30;99.90;;;;;;5026433;28;20401;-62
2022/11/05 08:05:43;;;;;;;14.23;5.85;;;8.30;99.90;;;;;;5006643;28;20064;-71
2022/11/05 08:08:18;;;;;;;11.57;6.03;;;8.40;99.90;;;;;;5018172;28;20053;-69
2022/11/05 08:10:46;;;;;;;14.45;6.03;;;8.40;99.90;;;;;;5029502;28;20049;-71
2022/11/05 08:13:14;;;;;;;17.38;6.97;;;8.40;99.90;;;;;;5028903;28;20052;-62
2022/11/05 08:15:43;;;;;;;11.15;6.43;;;8.40;99.90;;;;;;5028314;28;20056;-65
2022/11/05 08:18:13;;;;;;;13.95;7.18;;;8.50;99.90;;;;;;5029289;28;20050;-62
2022/11/05 08:20:43;;;;;;;14.55;7.13;;;8.50;99.90;;;;;;5008574;28;20058;-61
2022/11/05 08:23:11;;;;;;;15.93;6.68;;;8.50;99.90;;;;;;5020201;28;20057;-64
2022/11/05 08:25:39;;;;;;;15.95;7.07;;;8.60;99.90;;;;;;5028048;28;20045;-61
2022/11/05 08:28:10;;;;;;;15.27;6.97;;;8.60;99.90;;;;;;5029342;28;20038;-64
2022/11/05 08:30:38;;;;;;;17.20;7.22;;;8.60;99.90;;;;;;5029435;28;20056;-61
2022/11/05 08:33:09;;;;;;;13.50;7.05;;;8.60;99.90;;;;;;5028796;28;20045;-61
2022/11/05 08:35:38;;;;;;;15.75;6.80;;;;;;;;;;5027653;28;20054;-68
2022/11/05 08:38:08;;;;;;;19.92;7.53;;;8.70;99.90;;;;;;5028612;28;20049;-66
2022/11/05 08:40:36;;;;;;;15.63;6.85;;;8.80;99.90;;;;;;5029153;28;20041;-62
2022/11/05 08:43:06;;;;;;;12.95;6.70;;;8.80;99.90;;;;;;5028599;28;20053;-62
2022/11/05 08:45:35;;;;;;;15.43;7.38;;;8.90;99.90;;;;;;4984835;28;1275831;-62
2022/11/05 08:48:10;;;;;;;15.57;7.43;;;8.90;99.90;;;;;;5027210;28;20590;-62
2022/11/05 08:50:38;;;;;;;14.25;7.57;;;8.90;99.90;;;;;;5024328;28;20049;-66
2022/11/05 08:53:07;;;;;;;14.32;7.03;;;8.90;99.90;;;;;;5019865;28;20052;-61
2022/11/05 08:55:37;;;;;;;15.48;8.00;;;9.00;99.90;;;;;;5030205;28;20049;-67
2022/11/05 08:58:09;;;;;;;16.25;7.78;;;9.00;99.90;;;;;;5029606;28;20058;-61
2022/11/05 09:00:37;;;;;;;10.48;6.68;;;9.60;99.90;;;;;;5029386;28;20049;-61
2022/11/05 09:03:07;;;;;;;14.73;7.85;;;9.00;99.90;;;;;;5029118;28;20391;-61
2022/11/05 09:05:38;;;;;;;15.15;7.35;;;9.10;99.90;;;;;;5012257;28;20512;-62
2022/11/05 09:08:31;;;;;;;13.60;7.18;;;9.00;99.90;;;;;;5017733;28;20497;-67
2022/11/05 09:10:59;;;;;;;10.85;6.53;;;9.00;99.90;;;;;;5027079;28;20052;-62
2022/11/05 09:13:27;;;;;;;12.40;6.68;;;9.10;99.90;;;;;;5028901;28;20041;-61
2022/11/05 09:15:57;;;;;;;11.90;6.22;;;9.10;99.90;;;;;;5027953;28;20476;-61
2022/11/05 09:18:25;;;;;;;9.63;6.28;;;9.10;99.90;;;;;;5029011;28;20054;-63
2022/11/05 09:20:53;;;;;;;15.50;6.97;;;9.20;99.90;;;;;;5011636;28;20409;-61
2022/11/05 09:23:21;;;;;;;11.30;6.57;;;9.20;99.90;;;;;;5019675;28;20367;-61
2022/11/05 09:25:48;;;;;;;17.05;6.57;;;9.20;99.90;;;;;;5029178;28;20397;-60
2022/11/05 09:28:18;;;;;;;12.55;6.65;;;9.30;99.90;;;;;;5028819;28;20064;-64
2022/11/05 09:30:49;;;;;;;12.18;6.35;;;9.30;99.90;;;;;;5028699;28;20053;-66
2022/11/05 09:33:19;;;;;;;10.20;6.20;;;9.30;99.90;;;;;;5011062;28;20053;-62
2022/11/05 09:35:47;;;;;;;13.15;6.18;;;9.40;99.90;;;;;;5015276;28;20482;-61
2022/11/05 09:38:15;;;;;;;12.18;6.63;;;9.40;99.90;;;;;;5018146;28;20053;-63
2022/11/05 09:41:04;;;;;;;10.52;5.47;;;9.50;99.90;;;;;;5027679;28;20053;-61
2022/11/05 09:43:54;;;;;;;13.98;5.05;;;9.60;99.90;;;;;;5028447;28;20128;-61
2022/11/05 09:46:23;;;;;;;12.32;5.93;;;8.90;99.90;;;;;;5027196;28;20053;-61
2022/11/05 09:49:02;;;;;;;10.50;5.35;;;9.60;99.90;;;;;;5027422;28;20045;-60
2022/11/05 09:51:30;;;;;;;9.25;5.15;;;9.70;99.90;;;;;;5028504;28;20057;-61
2022/11/05 09:53:59;;;;;;;8.73;4.43;;;9.70;99.90;;;;;;5028288;28;20048;-61
2022/11/05 09:56:30;;;;;;;8.68;4.57;;;9.70;99.90;;;;;;5028742;28;20088;-60
2022/11/05 09:58:59;;;;;;;8.95;3.85;;;9.80;99.90;;;;;;5028279;28;20052;-62
2022/11/05 10:01:36;;;;;;;6.68;4.43;;;9.80;99.90;;;;;;5028941;28;20049;-65
2022/11/05 10:04:13;;;;;;;6.50;3.78;;;9.80;99.90;;;;;;5026987;28;20044;-66
2022/11/05 10:06:48;;;;;;;7.55;3.90;;;9.80;99.90;;;;;;5008755;28;20057;-63
2022/11/05 10:09:16;;;;;;;8.10;3.78;;;9.90;99.90;;;;;;5024915;28;20072;-61
2022/11/05 10:12:14;;;;;;;8.65;3.17;;;10.00;99.90;;;;;;5028544;28;20056;-62
2022/11/05 10:14:48;;;;;;;7.65;3.05;;;10.00;99.90;;;;;;5027637;28;20045;-62
2022/11/05 10:17:25;;;;;;;2.83;2.20;;;10.10;99.90;;;;;;5015245;28;20054;-66
2022/11/05 10:20:14;;;;;;;9.10;3.33;;;10.20;99.90;;;;;;5027078;28;20056;-66
2022/11/05 10:22:42;;;;;;;8.93;3.37;;;10.20;99.90;;;;;;5027880;28;20041;-61
2022/11/05 10:25:18;;;;;;;3.42;2.50;;;10.30;99.90;;;;;;5028421;28;20299;-65
2022/11/05 10:27:52;;;;;;;8.60;2.75;;;10.30;99.90;;;;;;5028113;28;20049;-60
2022/11/05 10:30:20;;;;;;;7.35;2.90;;;10.30;99.90;;;;;;5028501;28;20197;-61
2022/11/05 10:32:53;;;;;;;3.47;2.15;;;10.30;99.90;;;;;;5028039;28;20053;-65
2022/11/05 10:35:23;;;;;;;9.00;3.65;;;10.30;99.90;;;;;;5019292;28;20049;-65
2022/11/05 10:37:54;;;;;;;7.20;3.10;;;10.30;99.90;;;;;;5014391;28;20056;-69
2022/11/05 10:40:56;;;;;;;13.13;3.17;;;10.30;99.90;;;;;;5027128;28;20045;-68
2022/11/05 10:43:34;;;;;;;7.35;2.13;;;10.40;99.90;;;;;;5028102;28;20417;-62
2022/11/05 10:46:24;;;;;;;11.05;5.25;;;10.30;99.90;;;;;;5026729;28;20046;-60
2022/11/05 10:48:59;;;;;;;8.38;2.58;;;10.30;99.90;;;;;;5026729;28;20053;-72
2022/11/05 10:51:27;;;;;;;7.22;2.92;;;10.30;99.90;;;;;;5011081;28;20068;-65
2022/11/05 10:53:59;;;;;;;5.95;2.63;;;10.30;99.90;;;;;;5006318;28;20046;-68
2022/11/05 10:56:35;;;;;;;5.53;2.03;;;10.30;99.90;;;;;;5028248;28;20045;-67
2022/11/05 10:59:05;;;;;;;12.45;5.55;;;10.20;99.90;;;;;;5027769;28;20045;-67
2022/11/05 11:01:39;;;;;;;3.70;2.25;;;10.20;99.90;;;;;;5024709;28;20057;-63
2022/11/05 11:04:22;;;;;;;14.00;3.63;;;10.20;99.90;;;;;;5024310;28;20045;-64
2022/11/05 11:06:54;;;;;;;9.95;2.88;;;10.20;99.90;;;;;;5007328;28;20112;-62
2022/11/05 11:09:31;;;;;;;6.15;1.98;;;10.20;99.90;;;;;;5026302;28;20065;-61
2022/11/05 11:12:04;;;;;;;6.80;2.17;;;10.20;99.90;;;;;;5027340;28;20061;-61
2022/11/05 11:14:40;;;;;;;7.15;2.90;;;10.30;99.90;;;;;;5007950;28;20552;-63
2022/11/05 11:17:35;;;;;;;8.10;3.35;;;10.20;99.90;;;;;;5018998;28;20558;-60
2022/11/05 11:20:26;;;;;;;15.82;2.78;;;10.30;99.90;;;;;;5023833;28;20129;-65
2022/11/05 11:23:19;;;;;;;6.28;2.67;;;10.30;99.90;;;;;;5015184;28;20037;-62
2022/11/05 11:25:51;;;;;;;6.60;2.40;;;10.20;99.90;;;;;;5027623;28;20382;-65
2022/11/05 11:28:23;;;;;;;16.23;2.45;;;10.30;99.90;;;;;;5027786;28;20053;-68
2022/11/05 11:31:24;;;;;;;17.00;8.48;;;10.30;99.90;;;;;;5031258;28;20048;-61
2022/11/05 11:34:20;;;;;;;10.70;5.35;;;10.30;99.90;;;;;;5018185;28;20493;-61
2022/11/05 11:36:53;;;;;;;6.20;2.55;;;10.30;99.90;;;;;;5011338;28;20050;-64
2022/11/05 11:39:26;;;;;;;12.35;2.45;;;10.30;99.90;;;;;;5029234;28;20045;-63
2022/11/05 11:41:57;;;;;;;6.90;2.38;;;10.30;99.90;;;;;;5030979;28;20050;-70
2022/11/05 11:44:30;;;;;;;4.75;2.10;;;10.40;99.90;;;;;;5030540;28;20053;-66
2022/11/05 11:47:07;;;;;;;8.05;2.67;;;10.40;99.90;;;;;;5030879;28;20053;-73
2022/11/05 11:49:38;;;;;;;6.85;1.90;;;10.40;99.90;;;;;;5029902;28;20473;-71
2022/11/05 11:52:27;;;;;;;10.40;3.03;;;10.40;99.90;;;;;;5029298;28;20489;-62
2022/11/05 11:55:20;;;;;;;7.70;2.13;;;10.40;99.90;;;;;;5030932;28;20038;-62
2022/11/05 11:58:10;;;;;;;9.35;2.20;;;10.40;99.90;;;;;;5029812;28;20057;-61
2022/11/05 12:00:44;;;;;;;4.32;2.08;;;10.40;99.90;;;;;;5029843;28;20112;-61
2022/11/05 12:03:41;;;;;;;13.32;1.90;;;10.50;99.90;;;;;;5028976;28;20046;-61
2022/11/05 12:06:41;;;;;;;9.75;2.95;;;10.50;99.90;;;;;;5021167;28;20425;-63
2022/11/05 12:09:48;;;;;;;7.10;2.10;;;10.50;99.90;;;;;;5026737;28;20069;-66
2022/11/05 12:12:28;;;;;;;4.05;1.70;;;10.50;99.90;;;;;;5030376;28;20057;-62
2022/11/05 12:15:17;;;;;;;;;;;10.60;99.90;;;;;;5029863;28;20061;-62
2022/11/05 12:18:00;;;;;;;5.97;1.83;;;10.50;99.90;;;;;;5029905;28;19928;-61
2022/11/05 12:21:04;;;;;;;4.90;1.95;;;10.50;99.90;;;;;;5027809;28;20053;-61
2022/11/05 12:23:49;;;;;;;10.32;1.83;;;10.60;99.90;;;;;;5022605;28;20048;-61
2022/11/05 12:26:41;;;;;;;7.10;2.03;;;10.60;99.90;;;;;;5030243;28;20481;-60
2022/11/05 12:29:28;;;;;;;8.43;2.90;;;10.60;99.90;;;;;;5030172;28;20064;-61
2022/11/05 12:32:04;;;;;;;6.82;1.50;;;10.60;99.90;;;;;;5030144;28;20045;-61
2022/11/05 12:34:49;;;;;;;9.77;1.85;;;10.70;99.90;;;;;;5010158;28;20057;-61
2022/11/05 12:37:25;;;;;;;8.20;1.58;;;10.70;99.90;;;;;;5010506;28;20093;-64
2022/11/05 12:39:56;;;;;;;8.35;1.95;;;10.80;99.90;;;;;;5028034;28;20049;-61
2022/11/05 12:42:34;;;;;;;6.15;1.58;;;10.80;99.90;;;;;;5029464;28;20409;-62
2022/11/05 12:45:24;;;;;;;6.65;2.20;;;10.80;99.90;;;;;;5029599;28;20072;-61
2022/11/05 12:47:51;;;;;;;9.68;2.05;;;10.90;99.90;;;;;;5029536;28;20053;-61
2022/11/05 12:50:42;;;;;;;6.75;1.58;;;10.90;99.90;;;;;;5029600;28;20037;-61
2022/11/05 12:53:30;;;;;;;4.72;1.25;;;10.90;99.90;;;;;;5018035;28;20060;-61
2022/11/05 12:56:02;;;;;;;5.00;1.17;;;10.90;99.90;;;;;;5029799;28;20076;-61
2022/11/05 12:58:41;;;;;;;6.60;1.85;;;10.90;99.90;;;;;;5029407;28;20056;-62
2022/11/05 13:01:21;;;;;;;3.55;1.20;;;11.00;99.90;;;;;;5029569;28;20061;-61
2022/11/05 13:04:05;;;;;;;3.67;1.50;;;11.00;99.90;;;;;;5029321;28;20045;-61
2022/11/05 13:06:40;;;;;;;3.65;1.80;;;10.60;99.90;;;;;;5021017;28;20486;-61
2022/11/05 13:09:18;;;;;;;6.45;1.40;;;11.10;99.90;;;;;;5025329;28;20045;-61
2022/11/05 13:11:58;;;;;;;3.63;1.52;;;11.20;99.90;;;;;;5029354;28;20048;-61
2022/11/05 13:14:36;;;;;;;9.75;2.67;;;11.20;99.90;;;;;;5029167;28;20375;-62
2022/11/05 13:17:14;;;;;;;5.38;1.60;;;11.20;99.90;;;;;;5029186;28;20050;-60
2022/11/05 13:19:56;;;;;;;2.97;1.35;;;11.30;99.90;;;;;;5028200;28;20516;-60
2022/11/05 13:22:35;;;;;;;4.20;1.50;;;11.30;99.90;;;;;;5017956;28;20087;-61
2022/11/05 13:25:38;;;;;;;1.92;1.20;;;11.30;99.90;;;;;;5029021;28;20045;-62
2022/11/05 13:28:32;;;;;;;5.40;2.15;;;11.40;99.90;;;;;;5028933;28;20405;-65
2022/11/05 13:31:04;;;;;;;3.03;1.60;;;11.50;99.90;;;;;;5029314;28;20049;-60
2022/11/05 13:33:38;;;;;;;6.95;2.28;;;11.60;99.90;;;;;;5028660;28;20060;-61
2022/11/05 13:39:48;;;;;;;9.20;2.55;;;11.60;99.90;;;;;;5022926;28;20041;-69
2022/11/05 13:42:22;;;;;;;3.67;1.55;;;11.70;99.90;;;;;;5010446;28;20374;-68
2022/11/05 13:45:17;;;;;;;4.82;1.80;;;11.80;99.90;;;;;;5028857;28;20129;-64
2022/11/05 13:48:05;;;;;;;4.35;1.65;;;11.90;99.90;;;;;;5028486;28;20393;-62
2022/11/05 13:51:12;;;;;;;2.03;0.90;;;12.00;99.90;;;;;;5028396;28;20053;-63
2022/11/05 13:54:13;;;;;;;4.18;1.13;;;12.00;99.90;;;;;;5021815;28;20042;-68
2022/11/05 13:57:05;;;;;;;3.92;1.85;;;12.00;99.90;;;;;;5028465;28;20045;-63
2022/11/05 13:59:39;;;;;;;4.38;1.40;;;12.10;99.90;;;;;;5028485;28;20045;-64
2022/11/05 14:02:16;;;;;;;12.63;7.32;;;12.10;99.90;;;;;;5028554;28;20060;-63
2022/11/05 14:04:52;;;;;;;8.90;4.90;;;12.10;99.90;;;;;;5028302;28;20049;-64
2022/11/05 14:07:37;;;;;;;3.80;1.33;;;12.10;99.90;;;;;;5018128;28;20046;-63
2022/11/05 14:10:31;;;;;;;1.92;1.25;;;12.10;99.90;;;;;;5028640;28;20485;-65
2022/11/05 14:13:13;;;;;;;6.45;1.52;;;12.20;99.90;;;;;;5026587;28;20421;-62
2022/11/05 14:15:55;;;;;;;4.15;0.88;;;12.10;99.90;;;;;;5027070;28;20052;-62